Time;durP1;ratioP1;P1;durP2;ratioP2;P2;SDS_P1;SDS_P2;PMS_P1;PMS_P2;Temp;Humidity;BMP_temperature;BMP_pressure;BME280_temperature;BME280_humidity;BME280_pressure;Samples;Min_cycle;Max_cycle;Signal;HPM_P1;HPM_P2
2024/01/30 00:00:04;;;;;;;0.30;0.30;;;1.70;99.90;;;;;;5093207;28;20180;-65
2024/01/30 00:02:29;;;;;;;0.00;0.00;;;1.70;99.90;;;;;;5093145;28;20190;-65
2024/01/30 00:04:55;;;;;;;0.00;0.00;;;1.70;99.90;;;;;;5093438;28;20173;-65
2024/01/30 00:07:20;;;;;;;0.00;0.00;;;1.70;99.90;;;;;;5092871;28;20188;-65
2024/01/30 00:09:49;;;;;;;0.00;0.00;;;1.70;99.90;;;;;;5091636;28;20216;-65
2024/01/30 00:12:14;;;;;;;0.00;0.00;;;1.70;99.90;;;;;;5092729;28;20164;-65
2024/01/30 00:14:43;;;;;;;0.00;0.00;;;1.70;99.90;;;;;;5091283;28;20302;-65
2024/01/30 00:17:08;;;;;;;0.00;0.00;;;1.70;99.90;;;;;;5092856;28;20187;-65
2024/01/30 00:19:34;;;;;;;0.00;0.00;;;1.60;99.90;;;;;;5092614;28;20259;-65
2024/01/30 00:21:59;;;;;;;0.00;0.00;;;1.60;99.90;;;;;;5092521;28;20200;-65
2024/01/30 00:24:25;;;;;;;0.00;0.00;;;1.60;99.90;;;;;;5092548;28;20191;-65
2024/01/30 00:26:51;;;;;;;0.00;0.00;;;1.60;99.90;;;;;;5092003;28;20168;-65
2024/01/30 00:29:19;;;;;;;0.00;0.00;;;1.60;99.90;;;;;;5092595;28;20229;-65
2024/01/30 00:31:45;;;;;;;0.00;0.00;;;1.60;99.90;;;;;;5092351;28;20207;-65
2024/01/30 00:34:11;;;;;;;0.70;0.70;;;1.60;99.90;;;;;;5092073;28;20559;-65
2024/01/30 00:36:37;;;;;;;0.00;0.00;;;1.60;99.90;;;;;;5092312;28;20176;-65
2024/01/30 00:39:06;;;;;;;0.00;0.00;;;1.50;99.90;;;;;;5092357;28;20220;-65
2024/01/30 00:41:31;;;;;;;0.00;0.00;;;1.50;99.90;;;;;;5092185;28;20172;-65
2024/01/30 00:43:57;;;;;;;0.00;0.00;;;1.50;99.90;;;;;;5092239;28;20198;-65
2024/01/30 00:46:22;;;;;;;0.00;0.00;;;1.50;99.90;;;;;;5092359;28;20172;-64
2024/01/30 00:48:48;;;;;;;0.00;0.00;;;1.50;99.90;;;;;;5091440;28;20262;-65
2024/01/30 00:51:14;;;;;;;0.10;0.10;;;1.50;99.90;;;;;;5091759;28;20176;-65
2024/01/30 00:53:41;;;;;;;0.00;0.00;;;1.50;99.90;;;;;;5090520;28;20249;-65
2024/01/30 00:56:07;;;;;;;0.00;0.00;;;1.50;99.90;;;;;;5091860;28;20203;-65
2024/01/30 00:58:33;;;;;;;0.00;0.00;;;1.50;99.90;;;;;;5091873;28;20188;-65
2024/01/30 01:00:59;;;;;;;0.00;0.00;;;1.50;99.90;;;;;;5091663;28;20245;-65
2024/01/30 01:03:25;;;;;;;0.00;0.00;;;1.50;99.90;;;;;;5092013;28;20814;-64
2024/01/30 01:05:50;;;;;;;0.00;0.00;;;1.50;99.90;;;;;;5091926;28;20225;-65
2024/01/30 01:08:16;;;;;;;0.00;0.00;;;1.50;99.90;;;;;;5091914;28;20184;-65
2024/01/30 01:10:41;;;;;;;0.00;0.00;;;1.50;99.90;;;;;;5091872;28;20186;-65
2024/01/30 01:13:07;;;;;;;0.00;0.00;;;1.40;99.90;;;;;;5091332;28;20570;-65
2024/01/30 01:15:32;;;;;;;0.00;0.00;;;1.40;99.90;;;;;;5091489;28;20291;-65
2024/01/30 01:17:58;;;;;;;0.00;0.00;;;1.40;99.90;;;;;;5090599;28;20669;-66
2024/01/30 01:20:23;;;;;;;0.00;0.00;;;1.40;99.90;;;;;;5091651;28;20180;-64
2024/01/30 01:22:49;;;;;;;0.00;0.00;;;1.40;99.90;;;;;;5089784;28;20188;-65
2024/01/30 01:25:15;;;;;;;0.00;0.00;;;1.40;99.90;;;;;;5091269;28;20192;-65
2024/01/30 01:27:42;;;;;;;0.00;0.00;;;1.40;99.90;;;;;;5091182;28;20176;-65
2024/01/30 01:30:11;;;;;;;0.00;0.00;;;1.30;99.90;;;;;;5091076;28;20176;-66
2024/01/30 01:32:38;;;;;;;0.10;0.10;;;1.30;99.90;;;;;;5090242;28;20187;-65
2024/01/30 01:35:05;;;;;;;0.00;0.00;;;1.30;99.90;;;;;;5091800;28;20207;-65
2024/01/30 01:37:31;;;;;;;0.00;0.00;;;1.30;99.90;;;;;;5090754;28;20172;-64
2024/01/30 01:39:56;;;;;;;0.00;0.00;;;1.30;99.90;;;;;;5091024;28;20223;-65
2024/01/30 01:42:22;;;;;;;0.00;0.00;;;1.30;99.90;;;;;;5091075;28;20180;-64
2024/01/30 01:44:48;;;;;;;0.00;0.00;;;1.30;99.90;;;;;;5090704;28;20233;-65
2024/01/30 01:47:14;;;;;;;0.00;0.00;;;1.20;99.90;;;;;;5091432;28;20229;-65
2024/01/30 01:49:40;;;;;;;0.10;0.10;;;1.20;99.90;;;;;;5091138;28;20236;-65
2024/01/30 01:52:06;;;;;;;0.00;0.00;;;1.20;99.90;;;;;;5091021;28;20184;-65
2024/01/30 01:54:33;;;;;;;0.00;0.00;;;1.20;99.90;;;;;;5091014;28;20265;-65
2024/01/30 01:56:59;;;;;;;0.25;0.25;;;1.20;99.90;;;;;;5091009;28;20249;-65
2024/01/30 01:59:25;;;;;;;0.00;0.00;;;1.10;99.90;;;;;;5090340;28;20237;-64
2024/01/30 02:01:53;;;;;;;0.25;0.25;;;1.10;99.90;;;;;;5091033;28;20574;-65
2024/01/30 02:04:18;;;;;;;0.00;0.00;;;1.10;99.90;;;;;;5090937;28;20212;-68
2024/01/30 02:06:44;;;;;;;0.00;0.00;;;1.10;99.90;;;;;;5091091;28;20211;-64
2024/01/30 02:09:10;;;;;;;0.00;0.00;;;1.10;99.90;;;;;;5090969;28;20183;-65
2024/01/30 02:11:35;;;;;;;0.00;0.00;;;1.10;99.90;;;;;;5090828;28;20204;-65
2024/01/30 02:14:05;;;;;;;0.05;0.05;;;1.00;99.90;;;;;;5090240;28;20211;-64
2024/01/30 02:16:31;;;;;;;0.30;0.30;;;1.00;99.90;;;;;;5090054;28;20723;-65
2024/01/30 02:18:57;;;;;;;0.00;0.00;;;1.00;99.90;;;;;;5084051;28;20176;-65
2024/01/30 02:21:23;;;;;;;0.00;0.00;;;1.00;99.90;;;;;;5090240;28;20187;-65
2024/01/30 02:23:49;;;;;;;0.00;0.00;;;1.00;99.90;;;;;;5090281;28;20175;-65
2024/01/30 02:26:14;;;;;;;0.00;0.00;;;1.00;99.90;;;;;;5090617;28;20176;-65
2024/01/30 02:28:40;;;;;;;0.00;0.00;;;1.00;99.90;;;;;;5090512;28;20187;-64
2024/01/30 02:31:06;;;;;;;0.00;0.00;;;1.00;99.90;;;;;;5090622;28;20183;-64
2024/01/30 02:33:31;;;;;;;0.00;0.00;;;1.00;99.90;;;;;;5090288;28;20200;-65
2024/01/30 02:35:57;;;;;;;0.00;0.00;;;1.00;99.90;;;;;;5090159;28;20176;-65
2024/01/30 02:38:23;;;;;;;0.00;0.00;;;1.00;99.90;;;;;;5090533;28;20180;-64
2024/01/30 02:40:49;;;;;;;0.00;0.00;;;1.00;99.90;;;;;;5090112;28;20232;-65
2024/01/30 02:43:16;;;;;;;0.22;0.22;;;1.00;99.90;;;;;;5089272;28;20658;-64
2024/01/30 02:45:42;;;;;;;0.00;0.00;;;0.90;99.90;;;;;;5089871;28;20357;-65
2024/01/30 02:48:07;;;;;;;0.00;0.00;;;0.90;99.90;;;;;;5090470;28;20723;-64
2024/01/30 02:50:33;;;;;;;0.00;0.00;;;0.90;99.90;;;;;;5090343;28;20196;-64
2024/01/30 02:52:58;;;;;;;0.22;0.22;;;1.00;99.90;;;;;;5088487;28;20239;-65
2024/01/30 02:55:24;;;;;;;0.03;0.03;;;0.90;99.90;;;;;;5090401;28;20189;-64
2024/01/30 02:57:49;;;;;;;0.15;0.15;;;0.90;99.90;;;;;;5089825;28;20180;-65
2024/01/30 03:00:15;;;;;;;0.00;0.00;;;0.90;99.90;;;;;;5090278;28;20255;-64
2024/01/30 03:02:41;;;;;;;0.10;0.10;;;0.80;99.90;;;;;;5090159;28;20185;-65
2024/01/30 03:05:07;;;;;;;0.00;0.00;;;0.80;99.90;;;;;;5090264;28;20187;-65
2024/01/30 03:07:33;;;;;;;0.00;0.00;;;0.80;99.90;;;;;;5089824;28;20184;-64
2024/01/30 03:09:59;;;;;;;0.00;0.00;;;0.80;99.90;;;;;;5089888;28;20653;-64
2024/01/30 03:12:24;;;;;;;0.10;0.10;;;0.80;99.90;;;;;;5093581;28;20207;-63
2024/01/30 03:14:50;;;;;;;0.00;0.00;;;0.80;99.90;;;;;;5093746;28;20208;-64
2024/01/30 03:17:15;;;;;;;0.43;0.28;;;0.80;99.90;;;;;;5093773;28;20229;-64
2024/01/30 03:19:41;;;;;;;0.00;0.00;;;0.80;99.90;;;;;;5093556;28;20537;-65
2024/01/30 03:22:07;;;;;;;0.10;0.10;;;0.80;99.90;;;;;;5093706;28;20725;-65
2024/01/30 03:24:32;;;;;;;0.00;0.00;;;0.70;99.90;;;;;;5093545;28;20180;-64
2024/01/30 03:26:58;;;;;;;0.00;0.00;;;0.70;99.90;;;;;;5093434;28;20183;-64
2024/01/30 03:29:23;;;;;;;0.00;0.00;;;0.70;99.90;;;;;;5093619;28;20701;-64
2024/01/30 03:31:49;;;;;;;0.40;0.20;;;0.70;99.90;;;;;;5093221;28;20212;-65
2024/01/30 03:34:15;;;;;;;0.00;0.00;;;0.70;99.90;;;;;;5093578;28;20204;-65
2024/01/30 03:36:40;;;;;;;0.00;0.00;;;0.70;99.90;;;;;;5093361;28;20579;-65
2024/01/30 03:39:06;;;;;;;0.10;0.10;;;0.70;99.90;;;;;;5093415;28;20243;-64
2024/01/30 03:41:31;;;;;;;0.00;0.00;;;0.60;99.90;;;;;;5093742;28;20673;-64
2024/01/30 03:43:57;;;;;;;0.00;0.00;;;0.60;99.90;;;;;;5093614;28;20198;-64
2024/01/30 03:46:22;;;;;;;0.00;0.00;;;0.60;99.90;;;;;;5093307;28;20177;-66
2024/01/30 03:48:48;;;;;;;0.00;0.00;;;0.70;99.90;;;;;;5093225;28;20195;-65
2024/01/30 03:51:14;;;;;;;0.00;0.00;;;0.70;99.90;;;;;;5093117;28;20199;-65
2024/01/30 03:53:43;;;;;;;0.00;0.00;;;0.60;99.90;;;;;;5092416;28;20571;-65
2024/01/30 03:56:09;;;;;;;0.00;0.00;;;0.60;99.90;;;;;;5087503;28;20184;-64
2024/01/30 03:58:35;;;;;;;0.00;0.00;;;0.60;99.90;;;;;;5092912;28;20188;-65
2024/01/30 04:01:01;;;;;;;0.57;0.38;;;0.60;99.90;;;;;;5093122;28;20180;-65
2024/01/30 04:03:26;;;;;;;0.00;0.00;;;0.60;99.90;;;;;;5092981;28;20195;-66
2024/01/30 04:05:52;;;;;;;0.28;0.28;;;0.60;99.90;;;;;;5092943;28;20203;-64
2024/01/30 04:08:18;;;;;;;0.00;0.00;;;0.60;99.90;;;;;;5092764;28;20222;-64
2024/01/30 04:10:44;;;;;;;0.00;0.00;;;0.60;99.90;;;;;;5092896;28;20176;-64
2024/01/30 04:13:10;;;;;;;0.03;0.03;;;0.60;99.90;;;;;;5092850;28;20200;-64
2024/01/30 04:15:35;;;;;;;0.00;0.00;;;0.60;99.90;;;;;;5092793;28;20254;-65
2024/01/30 04:18:01;;;;;;;0.00;0.00;;;0.60;99.90;;;;;;5092419;28;20212;-66
2024/01/30 04:20:27;;;;;;;0.00;0.00;;;0.60;99.90;;;;;;5090688;28;20751;-67
2024/01/30 04:22:52;;;;;;;0.00;0.00;;;0.60;99.90;;;;;;5091270;28;20176;-66
2024/01/30 04:25:18;;;;;;;0.10;0.10;;;0.60;99.90;;;;;;5093048;28;20187;-66
2024/01/30 04:27:43;;;;;;;0.00;0.00;;;0.60;99.90;;;;;;5092184;28;20172;-69
2024/01/30 04:30:09;;;;;;;0.00;0.00;;;0.60;99.90;;;;;;5091773;28;20230;-65
2024/01/30 04:32:36;;;;;;;0.25;0.25;;;0.50;99.90;;;;;;5092486;28;20636;-66
2024/01/30 04:35:01;;;;;;;0.10;0.10;;;0.50;99.90;;;;;;5092915;28;20188;-66
2024/01/30 04:37:27;;;;;;;0.00;0.00;;;0.50;99.90;;;;;;5091512;28;20184;-63
2024/01/30 04:39:53;;;;;;;0.00;0.00;;;0.50;99.90;;;;;;5092202;28;20246;-64
2024/01/30 04:42:18;;;;;;;0.05;0.05;;;0.50;99.90;;;;;;5093085;28;20184;-66
2024/01/30 04:44:44;;;;;;;0.00;0.00;;;0.40;99.90;;;;;;5092833;28;20184;-65
2024/01/30 04:47:11;;;;;;;0.00;0.00;;;0.40;99.90;;;;;;5092209;28;20247;-66
2024/01/30 04:49:40;;;;;;;0.00;0.00;;;0.40;99.90;;;;;;5092596;28;20184;-64
2024/01/30 04:52:06;;;;;;;0.00;0.00;;;0.40;99.90;;;;;;5092473;28;20210;-65
2024/01/30 04:54:32;;;;;;;0.00;0.00;;;0.40;99.90;;;;;;5092593;28;20223;-64
2024/01/30 04:56:58;;;;;;;0.00;0.00;;;0.40;99.90;;;;;;5092261;28;20180;-64
2024/01/30 04:59:24;;;;;;;0.00;0.00;;;0.40;99.90;;;;;;5092524;28;20206;-61
2024/01/30 05:01:49;;;;;;;0.00;0.00;;;0.40;99.90;;;;;;5092546;28;20210;-64
2024/01/30 05:04:15;;;;;;;0.10;0.10;;;0.40;99.90;;;;;;5093247;28;20199;-63
2024/01/30 05:06:40;;;;;;;0.00;0.00;;;0.40;99.90;;;;;;5092276;28;20237;-66
2024/01/30 05:09:06;;;;;;;0.30;0.30;;;0.40;99.90;;;;;;5091759;28;20187;-72
2024/01/30 05:11:36;;;;;;;0.00;0.00;;;0.40;99.90;;;;;;5091515;28;20180;-63
2024/01/30 05:14:02;;;;;;;0.00;0.00;;;0.40;99.90;;;;;;5089804;28;20250;-68
2024/01/30 05:16:27;;;;;;;0.00;0.00;;;0.30;99.90;;;;;;5091122;28;20265;-69
2024/01/30 05:18:53;;;;;;;0.10;0.10;;;0.30;99.90;;;;;;5091603;28;20286;-66
2024/01/30 05:21:18;;;;;;;0.00;0.00;;;0.30;99.90;;;;;;5090712;28;20188;-66
2024/01/30 05:23:44;;;;;;;0.00;0.00;;;0.30;99.90;;;;;;5091650;28;20190;-70
2024/01/30 05:26:10;;;;;;;0.00;0.00;;;0.30;99.90;;;;;;5091505;28;20204;-68
2024/01/30 05:28:36;;;;;;;0.43;0.43;;;0.30;99.90;;;;;;5091622;28;20265;-61
2024/01/30 05:31:01;;;;;;;0.00;0.00;;;0.30;99.90;;;;;;5091449;28;20667;-62
2024/01/30 05:33:27;;;;;;;0.10;0.10;;;0.30;99.90;;;;;;5091296;28;20218;-62
2024/01/30 05:35:54;;;;;;;1.55;0.57;;;0.20;99.90;;;;;;5091815;28;20190;-63
2024/01/30 05:38:20;;;;;;;0.00;0.00;;;0.20;99.90;;;;;;5091736;28;20168;-63
2024/01/30 05:40:45;;;;;;;0.00;0.00;;;0.20;99.90;;;;;;5091251;28;20226;-64
2024/01/30 05:43:11;;;;;;;0.00;0.00;;;0.20;99.90;;;;;;5091740;28;20264;-62
2024/01/30 05:45:37;;;;;;;0.00;0.00;;;0.20;99.90;;;;;;5091059;28;20647;-63
2024/01/30 05:48:03;;;;;;;0.00;0.00;;;0.20;99.90;;;;;;5091076;28;20573;-62
2024/01/30 05:50:29;;;;;;;0.00;0.00;;;0.20;99.90;;;;;;5091377;28;20591;-62
2024/01/30 05:52:54;;;;;;;0.00;0.00;;;0.20;99.90;;;;;;5091350;28;20606;-63
2024/01/30 05:55:20;;;;;;;0.00;0.00;;;0.20;99.90;;;;;;5091416;28;20187;-63
2024/01/30 05:57:45;;;;;;;0.00;0.00;;;0.20;99.90;;;;;;5091322;28;20229;-63
2024/01/30 06:00:11;;;;;;;0.00;0.00;;;0.20;99.90;;;;;;5091108;28;20229;-63
2024/01/30 06:02:36;;;;;;;0.00;0.00;;;0.20;99.90;;;;;;5091075;28;20256;-62
2024/01/30 06:05:02;;;;;;;0.00;0.00;;;0.20;99.90;;;;;;5091422;28;20227;-64
2024/01/30 06:07:28;;;;;;;0.00;0.00;;;0.20;99.90;;;;;;5091343;28;20183;-63
2024/01/30 06:09:54;;;;;;;0.00;0.00;;;0.20;99.90;;;;;;5091539;28;20183;-63
2024/01/30 06:12:19;;;;;;;0.00;0.00;;;0.20;99.90;;;;;;5091616;28;20193;-63
2024/01/30 06:14:45;;;;;;;0.00;0.00;;;0.20;99.90;;;;;;5091370;28;20302;-63
2024/01/30 06:17:11;;;;;;;0.00;0.00;;;0.20;99.90;;;;;;5091444;28;20175;-62
2024/01/30 06:19:38;;;;;;;0.00;0.00;;;0.20;99.90;;;;;;5091303;28;20710;-63
2024/01/30 06:22:04;;;;;;;0.15;0.15;;;0.10;99.90;;;;;;5091505;28;20534;-63
2024/01/30 06:24:29;;;;;;;0.65;0.65;;;0.10;99.90;;;;;;5090223;28;20176;-63
2024/01/30 06:26:55;;;;;;;0.00;0.00;;;0.20;99.90;;;;;;5091392;28;20200;-64
2024/01/30 06:29:21;;;;;;;0.00;0.00;;;0.20;99.90;;;;;;5091148;28;20199;-64
2024/01/30 06:31:46;;;;;;;0.00;0.00;;;0.20;99.90;;;;;;5091287;28;20184;-63
2024/01/30 06:34:12;;;;;;;0.10;0.10;;;0.20;99.90;;;;;;5091157;28;20215;-63
2024/01/30 06:36:38;;;;;;;0.20;0.20;;;0.20;99.90;;;;;;5091146;28;20171;-63
2024/01/30 06:39:04;;;;;;;0.00;0.00;;;0.10;99.90;;;;;;5091314;28;20611;-63
2024/01/30 06:41:30;;;;;;;0.00;0.00;;;0.20;99.90;;;;;;5091178;28;20188;-63
2024/01/30 06:43:56;;;;;;;0.00;0.00;;;0.20;99.90;;;;;;5091176;28;20283;-63
2024/01/30 06:46:21;;;;;;;0.00;0.00;;;0.20;99.90;;;;;;5093004;28;20180;-63
2024/01/30 06:48:47;;;;;;;0.00;0.00;;;0.20;99.90;;;;;;5095213;28;20191;-63
2024/01/30 06:51:12;;;;;;;0.00;0.00;;;0.20;99.90;;;;;;5095096;28;20187;-63
2024/01/30 06:53:38;;;;;;;0.00;0.00;;;0.20;99.90;;;;;;5095249;28;20213;-63
2024/01/30 06:56:04;;;;;;;0.10;0.10;;;0.20;99.90;;;;;;5095221;28;20191;-63
2024/01/30 06:58:29;;;;;;;0.00;0.00;;;0.20;99.90;;;;;;5095149;28;20180;-63
2024/01/30 07:00:56;;;;;;;0.25;0.25;;;0.20;99.90;;;;;;5095173;28;20188;-63
2024/01/30 07:03:22;;;;;;;0.00;0.00;;;0.20;99.90;;;;;;5095126;28;20269;-62
2024/01/30 07:05:47;;;;;;;0.00;0.00;;;0.20;99.90;;;;;;5094855;28;20647;-63
2024/01/30 07:08:13;;;;;;;0.00;0.00;;;0.20;99.90;;;;;;5094915;28;20184;-63
2024/01/30 07:10:38;;;;;;;0.00;0.00;;;0.20;99.90;;;;;;5094818;28;20180;-63
2024/01/30 07:13:05;;;;;;;0.20;0.20;;;0.30;99.90;;;;;;5094821;28;20295;-63
2024/01/30 07:15:31;;;;;;;0.20;0.20;;;0.30;99.90;;;;;;5094822;28;20186;-63
2024/01/30 07:17:56;;;;;;;0.00;0.00;;;0.30;99.90;;;;;;5094645;28;20184;-63
2024/01/30 07:20:22;;;;;;;0.00;0.00;;;0.30;99.90;;;;;;5094608;28;20177;-63
2024/01/30 07:22:48;;;;;;;0.20;0.20;;;0.30;99.90;;;;;;5094604;28;20184;-63
2024/01/30 07:25:13;;;;;;;0.00;0.00;;;0.40;99.90;;;;;;5094484;28;20172;-62
2024/01/30 07:27:39;;;;;;;0.00;0.00;;;0.40;99.90;;;;;;5094595;28;20191;-61
2024/01/30 07:30:05;;;;;;;0.00;0.00;;;0.40;99.90;;;;;;5094486;28;20627;-61
2024/01/30 07:32:31;;;;;;;0.10;0.10;;;0.40;99.90;;;;;;5094250;28;20271;-63
2024/01/30 07:34:57;;;;;;;0.15;0.15;;;0.40;99.90;;;;;;5094378;28;20224;-63
2024/01/30 07:37:22;;;;;;;0.00;0.00;;;0.40;99.90;;;;;;5094300;28;20207;-62
2024/01/30 07:39:48;;;;;;;0.00;0.00;;;0.50;99.90;;;;;;5094080;28;20243;-63
2024/01/30 07:42:14;;;;;;;0.00;0.00;;;0.50;99.90;;;;;;5094272;28;20183;-63
2024/01/30 07:44:39;;;;;;;0.00;0.00;;;0.60;99.90;;;;;;5094218;28;20247;-62
2024/01/30 07:47:05;;;;;;;0.00;0.00;;;0.70;99.90;;;;;;5094137;28;20187;-63
2024/01/30 07:49:31;;;;;;;0.00;0.00;;;0.70;99.90;;;;;;5093960;28;20181;-63
2024/01/30 07:51:56;;;;;;;0.05;0.05;;;0.80;99.90;;;;;;5094360;28;20188;-63
2024/01/30 07:54:22;;;;;;;0.10;0.10;;;0.90;99.90;;;;;;5094042;28;20234;-63
2024/01/30 07:56:47;;;;;;;0.00;0.00;;;1.00;99.90;;;;;;5093383;28;20650;-63
2024/01/30 07:59:13;;;;;;;0.15;0.15;;;1.00;99.90;;;;;;5093118;28;20255;-63
2024/01/30 08:01:38;;;;;;;0.20;0.20;;;1.20;99.90;;;;;;5093786;28;20172;-63
2024/01/30 08:04:04;;;;;;;0.00;0.00;;;1.20;99.90;;;;;;5093929;28;20527;-63
2024/01/30 08:06:30;;;;;;;0.30;0.30;;;1.40;99.90;;;;;;5093658;28;20173;-63
2024/01/30 08:08:57;;;;;;;0.00;0.00;;;1.50;99.90;;;;;;5093722;28;20176;-63
2024/01/30 08:11:25;;;;;;;0.00;0.00;;;1.50;99.90;;;;;;5093735;28;20202;-63
2024/01/30 08:13:52;;;;;;;0.20;0.20;;;1.60;99.90;;;;;;5093466;28;20204;-63
2024/01/30 08:16:17;;;;;;;0.00;0.00;;;1.60;99.90;;;;;;5093518;28;20183;-63
2024/01/30 08:18:43;;;;;;;0.13;0.13;;;1.70;99.90;;;;;;5093316;28;20531;-62
2024/01/30 08:21:09;;;;;;;0.00;0.00;;;1.80;99.90;;;;;;5093303;28;20180;-62
2024/01/30 08:23:34;;;;;;;0.00;0.00;;;1.90;99.90;;;;;;5093257;28;20254;-62
2024/01/30 08:26:00;;;;;;;0.08;0.08;;;2.00;99.90;;;;;;5093200;28;20678;-62
2024/01/30 08:28:26;;;;;;;0.00;0.00;;;2.10;99.90;;;;;;5093225;28;20183;-62
2024/01/30 08:30:52;;;;;;;0.00;0.00;;;2.20;99.90;;;;;;5091981;28;20184;-62
2024/01/30 08:33:17;;;;;;;0.05;0.05;;;2.30;99.90;;;;;;5093103;28;20250;-63
2024/01/30 08:35:43;;;;;;;0.10;0.10;;;2.30;99.90;;;;;;5093054;28;20184;-63
2024/01/30 08:38:08;;;;;;;0.00;0.00;;;2.40;99.90;;;;;;5093068;28;20176;-63
2024/01/30 08:40:34;;;;;;;0.00;0.00;;;2.50;99.90;;;;;;5092844;28;20223;-62
2024/01/30 08:43:00;;;;;;;0.10;0.10;;;2.60;99.90;;;;;;5093031;28;20233;-62
2024/01/30 08:45:25;;;;;;;0.10;0.10;;;2.70;99.90;;;;;;5093068;28;20567;-62
2024/01/30 08:47:51;;;;;;;0.00;0.00;;;2.80;99.90;;;;;;5092882;28;20176;-62
2024/01/30 08:50:16;;;;;;;0.00;0.00;;;2.90;99.90;;;;;;5093034;28;20691;-62
2024/01/30 08:52:42;;;;;;;0.05;0.05;;;3.10;99.90;;;;;;5092882;28;20214;-62
2024/01/30 08:55:07;;;;;;;0.00;0.00;;;3.20;99.90;;;;;;5093003;28;20519;-62
2024/01/30 08:57:33;;;;;;;0.00;0.00;;;3.40;99.90;;;;;;5092635;28;20176;-62
2024/01/30 08:59:59;;;;;;;0.00;0.00;;;3.50;99.90;;;;;;5092931;28;20183;-62
2024/01/30 09:02:24;;;;;;;0.08;0.08;;;3.70;99.90;;;;;;5092663;28;20529;-62
2024/01/30 09:04:50;;;;;;;0.15;0.15;;;3.90;99.90;;;;;;5092721;28;20176;-63
2024/01/30 09:07:15;;;;;;;0.00;0.00;;;4.10;99.90;;;;;;5092759;28;20269;-62
2024/01/30 09:09:41;;;;;;;0.00;0.00;;;4.20;99.90;;;;;;5092075;28;20184;-62
2024/01/30 09:12:09;;;;;;;0.10;0.10;;;4.30;99.90;;;;;;5092741;28;20191;-62
2024/01/30 09:14:38;;;;;;;0.10;0.10;;;4.30;99.90;;;;;;5092425;28;20219;-62
2024/01/30 09:17:04;;;;;;;0.00;0.00;;;4.40;99.90;;;;;;5092587;28;20192;-62
2024/01/30 09:19:30;;;;;;;0.00;0.00;;;4.50;99.90;;;;;;5092404;28;20218;-62
2024/01/30 09:21:55;;;;;;;0.00;0.00;;;4.60;99.90;;;;;;5092325;28;20571;-62
2024/01/30 09:24:21;;;;;;;0.00;0.00;;;4.70;99.90;;;;;;5092324;28;20168;-62
2024/01/30 09:26:46;;;;;;;0.00;0.00;;;4.70;99.90;;;;;;5092172;28;20172;-63
2024/01/30 09:29:12;;;;;;;0.00;0.00;;;4.80;99.90;;;;;;5092093;28;20172;-63
2024/01/30 09:31:38;;;;;;;0.00;0.00;;;4.90;99.90;;;;;;5092133;28;20662;-62
2024/01/30 09:34:03;;;;;;;0.00;0.00;;;4.90;99.90;;;;;;5092220;28;20212;-63
2024/01/30 09:36:29;;;;;;;0.00;0.00;;;4.90;99.90;;;;;;5092064;28;20204;-63
2024/01/30 09:38:54;;;;;;;0.10;0.10;;;4.90;99.90;;;;;;5092097;28;20172;-63
2024/01/30 09:41:23;;;;;;;0.00;0.00;;;5.00;99.90;;;;;;5092121;28;20172;-62
2024/01/30 09:43:50;;;;;;;0.00;0.00;;;5.00;99.90;;;;;;5091894;28;20188;-63
2024/01/30 09:46:18;;;;;;;0.00;0.00;;;5.00;99.90;;;;;;5092056;28;20172;-63
2024/01/30 09:48:46;;;;;;;0.05;0.05;;;4.90;99.90;;;;;;5091891;28;20184;-63
2024/01/30 09:51:14;;;;;;;0.00;0.00;;;4.90;99.90;;;;;;5091880;28;20168;-63
2024/01/30 09:53:41;;;;;;;0.00;0.00;;;4.80;99.90;;;;;;5091914;28;20219;-62
2024/01/30 09:56:07;;;;;;;0.00;0.00;;;4.90;99.90;;;;;;5091827;28;20262;-62
2024/01/30 09:58:33;;;;;;;0.30;0.30;;;4.90;99.90;;;;;;5091604;28;20290;-63
2024/01/30 10:00:59;;;;;;;0.15;0.15;;;4.90;99.90;;;;;;5091879;28;20172;-63
2024/01/30 10:03:25;;;;;;;0.00;0.00;;;4.90;99.90;;;;;;5091740;28;20168;-62
2024/01/30 10:05:54;;;;;;;0.00;0.00;;;4.90;99.90;;;;;;5091515;28;20184;-63
2024/01/30 10:08:20;;;;;;;0.10;0.10;;;5.00;99.90;;;;;;5091803;28;20180;-62
2024/01/30 10:10:47;;;;;;;0.28;0.28;;;5.10;99.90;;;;;;5091611;28;20180;-62
2024/01/30 10:13:12;;;;;;;0.00;0.00;;;5.10;99.90;;;;;;5091512;28;20678;-62
2024/01/30 10:15:38;;;;;;;0.22;0.22;;;5.20;99.90;;;;;;5091541;28;20198;-62
2024/01/30 10:18:06;;;;;;;0.00;0.00;;;5.30;99.90;;;;;;5091606;28;20168;-62
2024/01/30 10:20:32;;;;;;;0.00;0.00;;;5.40;99.90;;;;;;5090638;28;20253;-63
2024/01/30 10:22:58;;;;;;;0.00;0.00;;;5.50;99.90;;;;;;5091622;28;20639;-63
2024/01/30 10:25:23;;;;;;;0.15;0.15;;;5.60;99.90;;;;;;5091453;28;20179;-62
2024/01/30 10:27:54;;;;;;;0.00;0.00;;;5.70;99.90;;;;;;5091341;28;20171;-63
2024/01/30 10:30:19;;;;;;;0.00;0.00;;;5.80;99.90;;;;;;5091575;28;20220;-62
2024/01/30 10:32:45;;;;;;;0.00;0.00;;;5.90;99.90;;;;;;5091467;28;20639;-63
2024/01/30 10:35:10;;;;;;;0.00;0.00;;;5.90;99.90;;;;;;5091245;28;20204;-63
2024/01/30 10:37:36;;;;;;;0.00;0.00;;;6.00;99.90;;;;;;5091326;28;20638;-62
2024/01/30 10:40:06;;;;;;;0.20;0.20;;;6.10;99.90;;;;;;5090947;28;20259;-63
2024/01/30 10:42:32;;;;;;;0.00;0.00;;;6.10;99.90;;;;;;5090021;28;20318;-63
2024/01/30 10:45:09;;;;;;;0.05;0.05;;;6.20;99.90;;;;;;5091382;28;20270;-63
2024/01/30 10:47:39;;;;;;;0.00;0.00;;;6.20;99.90;;;;;;5091307;28;20183;-63
2024/01/30 10:50:05;;;;;;;0.10;0.10;;;6.30;99.90;;;;;;5091359;28;20207;-62
2024/01/30 10:52:32;;;;;;;0.10;0.10;;;6.30;99.90;;;;;;5091095;28;20187;-63
2024/01/30 10:54:58;;;;;;;0.00;0.00;;;6.30;99.90;;;;;;5091215;28;20224;-63
2024/01/30 10:57:26;;;;;;;0.20;0.20;;;6.30;99.90;;;;;;5091177;28;20169;-63
2024/01/30 11:00:00;;;;;;;0.00;0.00;;;6.30;99.90;;;;;;5091145;28;20267;-63
2024/01/30 11:02:26;;;;;;;0.25;0.25;;;6.30;99.90;;;;;;5091027;28;20535;-63
2024/01/30 11:04:59;;;;;;;0.05;0.05;;;6.40;99.90;;;;;;5090983;28;20640;-63
2024/01/30 11:07:27;;;;;;;0.00;0.00;;;6.40;99.90;;;;;;5091045;28;20556;-62
2024/01/30 11:10:06;;;;;;;0.25;0.25;;;6.40;99.90;;;;;;5089851;28;20164;-63
2024/01/30 11:12:37;;;;;;;0.00;0.00;;;6.50;99.90;;;;;;5090855;28;20225;-63
2024/01/30 11:15:10;;;;;;;0.00;0.00;;;6.50;99.90;;;;;;5091153;28;20222;-64
2024/01/30 11:17:48;;;;;;;0.00;0.00;;;6.60;99.90;;;;;;5091055;28;20196;-63
2024/01/30 11:20:25;;;;;;;0.00;0.00;;;6.60;99.90;;;;;;5090797;28;20176;-63
2024/01/30 11:22:56;;;;;;;0.00;0.00;;;6.70;99.90;;;;;;5091012;28;20184;-63
2024/01/30 11:25:22;;;;;;;0.15;0.15;;;6.80;99.90;;;;;;5091222;28;20269;-63
2024/01/30 11:27:50;;;;;;;0.00;0.00;;;6.80;99.90;;;;;;5090857;28;20172;-63
2024/01/30 11:30:26;;;;;;;0.00;0.00;;;7.00;99.90;;;;;;5091032;28;20660;-63
2024/01/30 11:33:08;;;;;;;0.00;0.00;;;7.10;99.90;;;;;;5092970;28;20175;-63
2024/01/30 11:35:44;;;;;;;0.00;0.00;;;7.20;99.90;;;;;;5094429;28;20187;-63
2024/01/30 11:38:14;;;;;;;0.32;0.32;;;7.40;99.90;;;;;;5094404;28;20229;-63
2024/01/30 11:40:40;;;;;;;0.15;0.15;;;7.50;99.90;;;;;;5094188;28;20243;-63
2024/01/30 11:43:08;;;;;;;0.10;0.10;;;7.60;99.90;;;;;;5127108;27;20727;-63
2024/01/30 11:45:35;;;;;;;0.08;0.08;;;7.70;99.90;;;;;;5094230;28;20594;-63
2024/01/30 11:48:03;;;;;;;0.00;0.00;;;7.80;99.90;;;;;;5094291;28;20255;-63
2024/01/30 11:50:29;;;;;;;0.00;0.00;;;7.90;99.90;;;;;;5094093;28;20732;-63
2024/01/30 11:52:55;;;;;;;0.32;0.32;;;8.00;99.90;;;;;;5094138;28;20164;-63
2024/01/30 11:55:20;;;;;;;0.00;0.00;;;8.10;99.90;;;;;;5094159;28;20180;-63
2024/01/30 11:57:46;;;;;;;0.10;0.10;;;8.20;99.90;;;;;;5093962;28;20210;-64
2024/01/30 12:00:16;;;;;;;0.00;0.00;;;8.20;99.90;;;;;;5093932;28;20285;-63
2024/01/30 12:02:42;;;;;;;0.00;0.00;;;8.30;99.90;;;;;;5093809;28;20177;-63
2024/01/30 12:05:08;;;;;;;0.00;0.00;;;8.30;99.90;;;;;;5094112;28;20184;-63
2024/01/30 12:07:34;;;;;;;2.05;1.17;;;8.50;99.90;;;;;;5093697;28;20176;-63
2024/01/30 12:10:00;;;;;;;0.00;0.00;;;8.60;99.90;;;;;;5093948;28;20260;-63
2024/01/30 12:12:26;;;;;;;0.00;0.00;;;8.60;99.90;;;;;;5093785;28;20172;-62
2024/01/30 12:14:52;;;;;;;0.00;0.00;;;8.70;99.90;;;;;;5093527;28;20223;-63
2024/01/30 12:17:44;;;;;;;0.00;0.00;;;8.80;99.90;;;;;;5093709;28;20725;-63
2024/01/30 12:20:15;;;;;;;0.00;0.00;;;8.80;99.90;;;;;;5121826;27;20245;-63
2024/01/30 12:22:42;;;;;;;0.00;0.00;;;9.00;99.90;;;;;;5093429;28;20569;-63
2024/01/30 12:25:09;;;;;;;0.00;0.00;;;9.10;99.90;;;;;;5093600;28;20259;-63
2024/01/30 12:27:35;;;;;;;0.00;0.00;;;9.10;99.90;;;;;;5093422;28;20173;-63
2024/01/30 12:30:00;;;;;;;0.10;0.10;;;9.10;99.90;;;;;;5093637;28;20176;-63
2024/01/30 12:32:26;;;;;;;0.00;0.00;;;9.10;99.90;;;;;;5093357;28;20283;-63
2024/01/30 12:34:56;;;;;;;0.00;0.00;;;9.20;99.90;;;;;;5093178;28;20212;-64
2024/01/30 12:37:24;;;;;;;0.00;0.00;;;9.20;99.90;;;;;;5093350;28;20549;-62
2024/01/30 12:39:51;;;;;;;0.00;0.00;;;9.20;99.90;;;;;;5092974;28;20228;-63
2024/01/30 12:42:17;;;;;;;0.10;0.10;;;9.20;99.90;;;;;;5093254;28;20226;-63
2024/01/30 12:44:43;;;;;;;0.00;0.00;;;9.20;99.90;;;;;;5092430;28;20172;-63
2024/01/30 12:47:11;;;;;;;0.20;0.20;;;9.20;99.90;;;;;;5093108;28;20267;-63
2024/01/30 12:49:37;;;;;;;0.00;0.00;;;9.20;99.90;;;;;;5093149;28;20184;-63
2024/01/30 12:52:02;;;;;;;0.00;0.00;;;9.30;99.90;;;;;;5091713;28;20224;-63